Time,TemperatureF,DewpointF,PressureIn,WindDirection,WindDirectionDegrees,WindSpeedMPH,WindSpeedGustMPH,Humidity,HourlyPrecipIn,Conditions,Clouds,dailyrainin,SolarRadiationWatts/m^2,SoftwareType,DateUTC
2013-06-16 00:01:00,59.0,26.0,30.05,WNW,296,23.0,37.0,28,-99.99,,,0.00,0.000000,,2013-06-16 07:01:00,
2013-06-16 00:11:00,59.0,26.0,30.05,WNW,296,23.0,37.0,28,-99.99,,,0.00,0.000000,,2013-06-16 07:11:00,
2013-06-16 02:43:00,60.0,26.0,30.05,WNW,295,31.0,45.0,27,-99.99,,,0.00,0.000000,,2013-06-16 09:43:00,
2013-06-16 03:12:00,60.0,26.0,30.05,WNW,295,31.0,45.0,27,-99.99,,,0.00,0.000000,,2013-06-16 10:12:00,
2013-06-16 04:43:00,59.0,19.0,30.05,WNW,300,27.0,45.0,21,-99.99,,,0.00,0.000000,,2013-06-16 11:43:00,
2013-06-16 04:53:00,59.0,19.0,30.05,WNW,300,27.0,45.0,21,-99.99,,,0.00,0.000000,,2013-06-16 11:53:00,
2013-06-16 05:11:00,59.0,19.0,30.05,WNW,300,27.0,45.0,21,-99.99,,,0.00,0.000000,,2013-06-16 12:11:00,
2013-06-16 05:43:00,59.0,24.0,30.06,WNW,300,26.0,44.0,26,-99.99,,,0.00,0.000000,,2013-06-16 12:43:00,
2013-06-16 05:53:00,59.0,24.0,30.06,WNW,300,26.0,44.0,26,-99.99,,,0.00,0.000000,,2013-06-16 12:53:00,
2013-06-16 06:53:00,60.0,28.0,30.08,NW,305,25.0,42.0,29,-99.99,,,0.00,0.000000,,2013-06-16 13:53:00,
2013-06-16 07:44:00,60.0,28.0,30.09,NW,306,22.0,40.0,29,-99.99,,,0.00,4.000000,,2013-06-16 14:44:00,
2013-06-16 07:52:00,60.0,28.0,30.09,NW,306,22.0,40.0,29,-99.99,,,0.00,4.000000,,2013-06-16 14:52:00,
2013-06-16 08:02:00,60.0,28.0,30.09,NW,306,22.0,40.0,29,-99.99,,,0.00,4.000000,,2013-06-16 15:02:00,
2013-06-16 08:12:00,60.0,28.0,30.09,NW,306,22.0,40.0,29,-99.99,,,0.00,4.000000,,2013-06-16 15:12:00,
2013-06-16 08:52:00,61.0,23.0,30.11,WNW,298,24.0,41.0,23,-99.99,,,0.00,76.000000,,2013-06-16 15:52:00,
2013-06-16 09:43:00,62.0,25.0,30.13,NW,304,22.0,34.0,24,0.00,,,0.00,136.000000,,2013-06-16 16:43:00,
2013-06-16 09:53:00,62.0,25.0,30.13,NW,304,22.0,34.0,24,0.00,,,0.00,136.000000,,2013-06-16 16:53:00,
2013-06-16 10:01:00,62.0,25.0,30.13,NW,304,22.0,34.0,24,0.00,,,0.00,136.000000,,2013-06-16 17:01:00,
2013-06-16 10:11:00,62.0,25.0,30.13,NW,304,22.0,34.0,24,0.00,,,0.00,136.000000,,2013-06-16 17:11:00,
2013-06-16 11:43:00,67.0,33.0,30.16,South,176,14.0,26.0,28,0.00,,,0.00,169.000000,,2013-06-16 18:43:00,
2013-06-16 11:52:00,67.0,33.0,30.16,South,176,14.0,26.0,28,0.00,,,0.00,169.000000,,2013-06-16 18:52:00,
2013-06-16 12:01:00,67.0,33.0,30.16,South,176,14.0,26.0,28,0.00,,,0.00,169.000000,,2013-06-16 19:01:00,
2013-06-16 12:11:00,67.0,33.0,30.16,South,176,14.0,26.0,28,0.00,,,0.00,169.000000,,2013-06-16 19:11:00,
2013-06-16 12:43:00,64.0,30.0,30.16,NW,311,12.0,26.0,28,0.00,,,0.00,152.000000,,2013-06-16 19:43:00,
2013-06-16 12:53:00,64.0,30.0,30.16,NW,311,12.0,26.0,28,0.00,,,0.00,152.000000,,2013-06-16 19:53:00,
2013-06-16 13:43:00,65.0,30.0,30.17,WNW,300,20.0,34.0,27,0.00,,,0.00,117.000000,,2013-06-16 20:43:00,
2013-06-16 13:53:00,65.0,30.0,30.17,WNW,300,20.0,34.0,27,0.00,,,0.00,117.000000,,2013-06-16 20:53:00,
2013-06-16 14:01:00,65.0,30.0,30.17,WNW,300,20.0,34.0,27,0.00,,,0.00,117.000000,,2013-06-16 21:01:00,
2013-06-16 14:11:00,65.0,30.0,30.17,WNW,300,20.0,34.0,27,0.00,,,0.00,117.000000,,2013-06-16 21:11:00,
2013-06-16 14:42:00,68.0,33.0,30.18,NW,305,20.0,37.0,27,0.00,,,0.00,78.000000,,2013-06-16 21:42:00,
2013-06-16 14:53:00,68.0,33.0,30.18,NW,305,20.0,37.0,27,0.00,,,0.00,78.000000,,2013-06-16 21:53:00,
2013-06-16 15:01:00,68.0,33.0,30.18,NW,305,20.0,37.0,27,0.00,,,0.00,78.000000,,2013-06-16 22:01:00,
2013-06-16 15:12:00,68.0,33.0,30.18,NW,305,20.0,37.0,27,0.00,,,0.00,78.000000,,2013-06-16 22:12:00,
2013-06-16 15:32:00,66.0,32.0,30.17,NE,36,14.0,32.0,28,0.00,,,0.00,48.000000,,2013-06-16 22:32:00,
2013-06-16 15:42:00,66.0,32.0,30.17,NE,36,14.0,32.0,28,0.00,,,0.00,48.000000,,2013-06-16 22:42:00,
2013-06-16 15:52:00,66.0,32.0,30.17,NE,36,14.0,32.0,28,0.00,,,0.00,48.000000,,2013-06-16 22:52:00,
2013-06-16 16:01:00,66.0,32.0,30.17,NE,36,14.0,32.0,28,0.00,,,0.00,48.000000,,2013-06-16 23:01:00,
2013-06-16 16:11:00,66.0,32.0,30.17,NE,36,14.0,32.0,28,0.00,,,0.00,48.000000,,2013-06-16 23:11:00,
2013-06-16 16:42:00,67.0,37.0,30.17,NW,305,17.0,36.0,33,0.00,,,0.00,30.000000,,2013-06-16 23:42:00,
2013-06-16 16:52:00,67.0,37.0,30.17,NW,305,17.0,36.0,33,0.00,,,0.00,30.000000,,2013-06-16 23:52:00,
2013-06-16 17:01:00,67.0,37.0,30.17,NW,305,17.0,36.0,33,0.00,,,0.00,30.000000,,2013-06-17 00:01:00,
2013-06-16 17:11:00,67.0,37.0,30.17,NW,305,17.0,36.0,33,0.00,,,0.00,30.000000,,2013-06-17 00:11:00,
2013-06-16 18:43:00,62.0,29.0,30.14,NNW,327,20.0,39.0,29,-99.99,,,0.00,35.000000,,2013-06-17 01:43:00,
2013-06-16 18:53:00,62.0,29.0,30.14,NNW,327,20.0,39.0,29,-99.99,,,0.00,35.000000,,2013-06-17 01:53:00,
2013-06-16 22:44:00,58.0,37.0,30.15,WNW,293,30.0,43.0,46,0.00,,,0.00,1.000000,,2013-06-17 05:44:00,
2013-06-16 22:53:00,58.0,37.0,30.15,WNW,293,30.0,43.0,46,0.00,,,0.00,1.000000,,2013-06-17 05:53:00,
2013-06-16 23:02:00,58.0,37.0,30.15,WNW,293,30.0,43.0,46,0.00,,,0.00,1.000000,,2013-06-17 06:02:00,
2013-06-16 23:12:00,58.0,37.0,30.15,WNW,293,30.0,43.0,46,0.00,,,0.00,1.000000,,2013-06-17 06:12:00,
2013-06-16 23:43:00,59.0,31.0,30.15,WNW,293,28.0,44.0,34,0.00,,,0.00,0.000000,,2013-06-17 06:43:00,
2013-06-16 23:53:00,59.0,31.0,30.15,WNW,293,28.0,44.0,34,0.00,,,0.00,0.000000,,2013-06-17 06:53:00,